sensor_id;sensor_type;location;lat;lon;timestamp;temperature;humidity
54680;DHT22;40578;53.178;5.846;2022-09-09T00:03:56;13.20;99.90
54680;DHT22;40578;53.178;5.846;2022-09-09T00:06:43;13.50;99.90
54680;DHT22;40578;53.178;5.846;2022-09-09T00:09:18;13.50;99.90
54680;DHT22;40578;53.178;5.846;2022-09-09T00:12:10;13.50;99.90
54680;DHT22;40578;53.178;5.846;2022-09-09T00:14:58;13.10;99.90
54680;DHT22;40578;53.178;5.846;2022-09-09T00:17:52;13.40;99.90
54680;DHT22;40578;53.178;5.846;2022-09-09T00:20:21;13.00;99.90
54680;DHT22;40578;53.178;5.846;2022-09-09T00:23:12;13.30;99.90
54680;DHT22;40578;53.178;5.846;2022-09-09T00:25:59;13.00;99.90
54680;DHT22;40578;53.178;5.846;2022-09-09T00:28:28;12.90;99.90
54680;DHT22;40578;53.178;5.846;2022-09-09T00:31:04;12.90;99.90
54680;DHT22;40578;53.178;5.846;2022-09-09T00:33:34;13.40;99.90
54680;DHT22;40578;53.178;5.846;2022-09-09T00:36:01;13.20;99.90
54680;DHT22;40578;53.178;5.846;2022-09-09T00:38:32;12.90;99.90
54680;DHT22;40578;53.178;5.846;2022-09-09T00:43:36;13.00;99.90
54680;DHT22;40578;53.178;5.846;2022-09-09T00:46:41;12.90;99.90
54680;DHT22;40578;53.178;5.846;2022-09-09T00:49:32;13.20;99.90
54680;DHT22;40578;53.178;5.846;2022-09-09T00:57:31;12.90;99.90
54680;DHT22;40578;53.178;5.846;2022-09-09T01:03:20;12.80;99.90
54680;DHT22;40578;53.178;5.846;2022-09-09T01:08:46;13.00;99.90
54680;DHT22;40578;53.178;5.846;2022-09-09T01:14:41;13.20;99.90
54680;DHT22;40578;53.178;5.846;2022-09-09T01:17:24;12.90;99.90
54680;DHT22;40578;53.178;5.846;2022-09-09T01:27:56;13.30;99.90
54680;DHT22;40578;53.178;5.846;2022-09-09T01:30:24;13.20;99.90
54680;DHT22;40578;53.178;5.846;2022-09-09T01:32:53;13.10;99.90
54680;DHT22;40578;53.178;5.846;2022-09-09T01:38:11;13.30;99.90
54680;DHT22;40578;53.178;5.846;2022-09-09T01:40:38;13.50;99.90
54680;DHT22;40578;53.178;5.846;2022-09-09T01:43:04;13.00;99.90
54680;DHT22;40578;53.178;5.846;2022-09-09T01:45:32;13.70;99.90
54680;DHT22;40578;53.178;5.846;2022-09-09T01:47:58;13.00;99.90
54680;DHT22;40578;53.178;5.846;2022-09-09T01:50:24;13.20;99.90
54680;DHT22;40578;53.178;5.846;2022-09-09T01:52:53;13.40;99.90
54680;DHT22;40578;53.178;5.846;2022-09-09T01:55:28;13.20;99.90
54680;DHT22;40578;53.178;5.846;2022-09-09T01:58:17;13.20;99.90
54680;DHT22;40578;53.178;5.846;2022-09-09T02:01:07;13.40;99.90
54680;DHT22;40578;53.178;5.846;2022-09-09T02:03:35;13.00;99.90
54680;DHT22;40578;53.178;5.846;2022-09-09T02:08:50;13.40;99.90
54680;DHT22;40578;53.178;5.846;2022-09-09T02:11:18;13.40;99.90
54680;DHT22;40578;53.178;5.846;2022-09-09T02:13:47;13.00;99.90
54680;DHT22;40578;53.178;5.846;2022-09-09T02:16:53;13.10;99.90
54680;DHT22;40578;53.178;5.846;2022-09-09T02:19:27;13.20;99.90
54680;DHT22;40578;53.178;5.846;2022-09-09T02:21:55;13.40;99.90
54680;DHT22;40578;53.178;5.846;2022-09-09T02:24:23;12.90;99.90
54680;DHT22;40578;53.178;5.846;2022-09-09T02:26:52;12.90;99.90
54680;DHT22;40578;53.178;5.846;2022-09-09T02:29:26;13.30;99.90
54680;DHT22;40578;53.178;5.846;2022-09-09T02:31:57;13.30;99.90
54680;DHT22;40578;53.178;5.846;2022-09-09T02:34:23;13.30;99.90
54680;DHT22;40578;53.178;5.846;2022-09-09T02:36:50;13.20;99.90
54680;DHT22;40578;53.178;5.846;2022-09-09T02:39:18;13.20;99.90
54680;DHT22;40578;53.178;5.846;2022-09-09T02:41:44;13.30;99.90
54680;DHT22;40578;53.178;5.846;2022-09-09T02:44:17;12.90;99.90
54680;DHT22;40578;53.178;5.846;2022-09-09T02:47:00;13.10;99.90
54680;DHT22;40578;53.178;5.846;2022-09-09T02:52:08;13.00;99.90
54680;DHT22;40578;53.178;5.846;2022-09-09T02:54:40;12.90;99.90
54680;DHT22;40578;53.178;5.846;2022-09-09T02:57:22;13.40;99.90
54680;DHT22;40578;53.178;5.846;2022-09-09T02:59:50;13.30;99.90
54680;DHT22;40578;53.178;5.846;2022-09-09T03:02:17;13.40;99.90
54680;DHT22;40578;53.178;5.846;2022-09-09T03:04:44;13.40;99.90
54680;DHT22;40578;53.178;5.846;2022-09-09T03:07:11;13.40;99.90
54680;DHT22;40578;53.178;5.846;2022-09-09T03:09:37;13.20;99.90
54680;DHT22;40578;53.178;5.846;2022-09-09T03:12:03;13.40;99.90
54680;DHT22;40578;53.178;5.846;2022-09-09T03:14:32;13.10;99.90
54680;DHT22;40578;53.178;5.846;2022-09-09T03:16:58;13.30;99.90
54680;DHT22;40578;53.178;5.846;2022-09-09T03:19:26;13.10;99.90
54680;DHT22;40578;53.178;5.846;2022-09-09T03:21:53;13.00;99.90
54680;DHT22;40578;53.178;5.846;2022-09-09T03:24:19;12.90;99.90
54680;DHT22;40578;53.178;5.846;2022-09-09T03:26:45;12.80;99.90
54680;DHT22;40578;53.178;5.846;2022-09-09T03:29:14;12.90;99.90
54680;DHT22;40578;53.178;5.846;2022-09-09T03:31:40;13.20;99.90
54680;DHT22;40578;53.178;5.846;2022-09-09T03:34:06;13.00;99.90
54680;DHT22;40578;53.178;5.846;2022-09-09T03:36:32;13.20;99.90
54680;DHT22;40578;53.178;5.846;2022-09-09T03:38:58;12.90;99.90
54680;DHT22;40578;53.178;5.846;2022-09-09T03:41:25;13.10;99.90
54680;DHT22;40578;53.178;5.846;2022-09-09T03:43:52;12.80;99.90
54680;DHT22;40578;53.178;5.846;2022-09-09T03:46:22;13.00;99.90
54680;DHT22;40578;53.178;5.846;2022-09-09T03:48:48;13.10;99.90
54680;DHT22;40578;53.178;5.846;2022-09-09T03:51:14;12.80;99.90
54680;DHT22;40578;53.178;5.846;2022-09-09T03:53:41;12.80;99.90
54680;DHT22;40578;53.178;5.846;2022-09-09T03:56:07;13.00;99.90
54680;DHT22;40578;53.178;5.846;2022-09-09T03:58:37;12.70;99.90
54680;DHT22;40578;53.178;5.846;2022-09-09T04:01:05;13.10;99.90
54680;DHT22;40578;53.178;5.846;2022-09-09T04:03:31;12.70;99.90
54680;DHT22;40578;53.178;5.846;2022-09-09T04:05:59;12.90;99.90
54680;DHT22;40578;53.178;5.846;2022-09-09T04:08:25;13.10;99.90
54680;DHT22;40578;53.178;5.846;2022-09-09T04:10:51;12.70;99.90
54680;DHT22;40578;53.178;5.846;2022-09-09T04:13:18;12.70;99.90
54680;DHT22;40578;53.178;5.846;2022-09-09T04:15:51;12.70;99.90
54680;DHT22;40578;53.178;5.846;2022-09-09T04:18:17;13.20;99.90
54680;DHT22;40578;53.178;5.846;2022-09-09T04:20:50;13.10;99.90
54680;DHT22;40578;53.178;5.846;2022-09-09T04:23:16;13.20;99.90
54680;DHT22;40578;53.178;5.846;2022-09-09T04:25:49;13.20;99.90
54680;DHT22;40578;53.178;5.846;2022-09-09T04:28:17;12.80;99.90
54680;DHT22;40578;53.178;5.846;2022-09-09T04:30:44;13.30;99.90
54680;DHT22;40578;53.178;5.846;2022-09-09T04:33:10;13.40;99.90
54680;DHT22;40578;53.178;5.846;2022-09-09T04:35:37;13.00;99.90
54680;DHT22;40578;53.178;5.846;2022-09-09T04:38:04;13.00;99.90
54680;DHT22;40578;53.178;5.846;2022-09-09T04:40:31;13.30;99.90
54680;DHT22;40578;53.178;5.846;2022-09-09T04:43:01;13.30;99.90
54680;DHT22;40578;53.178;5.846;2022-09-09T04:45:28;13.40;99.90
54680;DHT22;40578;53.178;5.846;2022-09-09T04:47:54;13.50;99.90
54680;DHT22;40578;53.178;5.846;2022-09-09T04:50:20;13.10;99.90
54680;DHT22;40578;53.178;5.846;2022-09-09T04:52:46;13.60;99.90
54680;DHT22;40578;53.178;5.846;2022-09-09T04:55:12;13.10;99.90
54680;DHT22;40578;53.178;5.846;2022-09-09T04:57:39;13.10;99.90
54680;DHT22;40578;53.178;5.846;2022-09-09T05:00:05;13.50;99.90
54680;DHT22;40578;53.178;5.846;2022-09-09T05:02:32;13.40;99.90
54680;DHT22;40578;53.178;5.846;2022-09-09T05:04:58;13.40;99.90
54680;DHT22;40578;53.178;5.846;2022-09-09T05:07:24;13.70;99.90
54680;DHT22;40578;53.178;5.846;2022-09-09T05:09:51;13.20;99.90
54680;DHT22;40578;53.178;5.846;2022-09-09T05:12:17;13.70;99.90
54680;DHT22;40578;53.178;5.846;2022-09-09T05:14:43;13.40;99.90
54680;DHT22;40578;53.178;5.846;2022-09-09T05:17:09;13.20;99.90
54680;DHT22;40578;53.178;5.846;2022-09-09T05:19:35;13.80;99.90
54680;DHT22;40578;53.178;5.846;2022-09-09T05:22:00;13.50;99.90
54680;DHT22;40578;53.178;5.846;2022-09-09T05:24:26;13.50;99.90
54680;DHT22;40578;53.178;5.846;2022-09-09T05:26:52;13.40;99.90
54680;DHT22;40578;53.178;5.846;2022-09-09T05:29:18;13.50;99.90
54680;DHT22;40578;53.178;5.846;2022-09-09T05:31:48;13.30;99.90
54680;DHT22;40578;53.178;5.846;2022-09-09T05:34:14;13.60;99.90
54680;DHT22;40578;53.178;5.846;2022-09-09T05:36:39;13.80;99.90
54680;DHT22;40578;53.178;5.846;2022-09-09T05:39:05;14.10;99.90
54680;DHT22;40578;53.178;5.846;2022-09-09T05:41:31;13.60;99.90
54680;DHT22;40578;53.178;5.846;2022-09-09T05:43:57;13.40;99.90
54680;DHT22;40578;53.178;5.846;2022-09-09T05:46:25;13.70;99.90
54680;DHT22;40578;53.178;5.846;2022-09-09T05:48:52;13.90;99.90
54680;DHT22;40578;53.178;5.846;2022-09-09T05:51:28;14.10;99.90
54680;DHT22;40578;53.178;5.846;2022-09-09T05:53:55;13.90;99.90
54680;DHT22;40578;53.178;5.846;2022-09-09T05:56:28;13.40;99.90
54680;DHT22;40578;53.178;5.846;2022-09-09T05:58:54;13.50;99.90
54680;DHT22;40578;53.178;5.846;2022-09-09T06:03:47;13.90;99.90
54680;DHT22;40578;53.178;5.846;2022-09-09T06:06:16;13.80;99.90
54680;DHT22;40578;53.178;5.846;2022-09-09T06:08:43;13.60;99.90
54680;DHT22;40578;53.178;5.846;2022-09-09T06:11:21;13.70;99.90
54680;DHT22;40578;53.178;5.846;2022-09-09T06:13:47;14.00;99.90
54680;DHT22;40578;53.178;5.846;2022-09-09T06:16:15;14.10;99.90
54680;DHT22;40578;53.178;5.846;2022-09-09T06:18:44;13.90;99.90
54680;DHT22;40578;53.178;5.846;2022-09-09T06:21:23;14.30;99.90
54680;DHT22;40578;53.178;5.846;2022-09-09T06:23:50;14.30;99.90
54680;DHT22;40578;53.178;5.846;2022-09-09T06:26:24;14.20;99.90
54680;DHT22;40578;53.178;5.846;2022-09-09T06:28:52;14.00;99.90
54680;DHT22;40578;53.178;5.846;2022-09-09T06:31:20;14.00;99.90
54680;DHT22;40578;53.178;5.846;2022-09-09T06:33:51;14.00;99.90
54680;DHT22;40578;53.178;5.846;2022-09-09T06:36:21;14.50;99.90
54680;DHT22;40578;53.178;5.846;2022-09-09T06:38:47;14.40;99.90
54680;DHT22;40578;53.178;5.846;2022-09-09T06:41:15;13.90;99.90
54680;DHT22;40578;53.178;5.846;2022-09-09T06:43:41;13.90;99.90
54680;DHT22;40578;53.178;5.846;2022-09-09T06:48:41;14.30;99.90
54680;DHT22;40578;53.178;5.846;2022-09-09T06:51:12;13.90;99.90
54680;DHT22;40578;53.178;5.846;2022-09-09T06:53:41;14.40;99.90
54680;DHT22;40578;53.178;5.846;2022-09-09T06:58:37;14.30;99.90
54680;DHT22;40578;53.178;5.846;2022-09-09T07:01:06;14.40;99.90
54680;DHT22;40578;53.178;5.846;2022-09-09T07:03:33;14.40;99.90
54680;DHT22;40578;53.178;5.846;2022-09-09T07:06:01;14.00;99.90
54680;DHT22;40578;53.178;5.846;2022-09-09T07:08:27;13.90;99.90
54680;DHT22;40578;53.178;5.846;2022-09-09T07:10:53;13.90;99.90
54680;DHT22;40578;53.178;5.846;2022-09-09T07:13:24;14.50;99.90
54680;DHT22;40578;53.178;5.846;2022-09-09T07:15:51;14.20;99.90
54680;DHT22;40578;53.178;5.846;2022-09-09T07:18:17;14.60;99.90
54680;DHT22;40578;53.178;5.846;2022-09-09T07:20:43;14.00;99.90
54680;DHT22;40578;53.178;5.846;2022-09-09T07:23:08;14.10;99.90
54680;DHT22;40578;53.178;5.846;2022-09-09T07:25:34;14.40;99.90
54680;DHT22;40578;53.178;5.846;2022-09-09T07:28:00;14.70;99.90
54680;DHT22;40578;53.178;5.846;2022-09-09T07:30:26;14.40;99.90
54680;DHT22;40578;53.178;5.846;2022-09-09T07:32:52;14.70;99.90
54680;DHT22;40578;53.178;5.846;2022-09-09T07:35:18;14.20;99.90
54680;DHT22;40578;53.178;5.846;2022-09-09T07:37:43;14.60;99.90
54680;DHT22;40578;53.178;5.846;2022-09-09T07:40:10;14.80;99.90
54680;DHT22;40578;53.178;5.846;2022-09-09T07:42:36;14.30;99.90
54680;DHT22;40578;53.178;5.846;2022-09-09T07:45:12;14.30;99.90
54680;DHT22;40578;53.178;5.846;2022-09-09T07:47:38;14.80;99.90
54680;DHT22;40578;53.178;5.846;2022-09-09T07:50:04;14.80;99.90
54680;DHT22;40578;53.178;5.846;2022-09-09T07:52:30;14.70;99.90
54680;DHT22;40578;53.178;5.846;2022-09-09T07:54:55;14.50;99.90
54680;DHT22;40578;53.178;5.846;2022-09-09T07:57:22;14.60;99.90
54680;DHT22;40578;53.178;5.846;2022-09-09T07:59:48;15.20;99.90
54680;DHT22;40578;53.178;5.846;2022-09-09T08:02:14;15.20;99.90
54680;DHT22;40578;53.178;5.846;2022-09-09T08:04:39;14.90;99.90
54680;DHT22;40578;53.178;5.846;2022-09-09T08:07:05;15.00;99.90
54680;DHT22;40578;53.178;5.846;2022-09-09T08:09:31;15.30;99.90
54680;DHT22;40578;53.178;5.846;2022-09-09T08:11:57;14.90;99.90
54680;DHT22;40578;53.178;5.846;2022-09-09T08:14:24;15.30;99.90
54680;DHT22;40578;53.178;5.846;2022-09-09T08:16:50;15.10;99.90
54680;DHT22;40578;53.178;5.846;2022-09-09T08:19:19;15.10;99.90
54680;DHT22;40578;53.178;5.846;2022-09-09T08:21:44;15.10;99.90
54680;DHT22;40578;53.178;5.846;2022-09-09T08:24:12;15.80;99.90
54680;DHT22;40578;53.178;5.846;2022-09-09T08:26:42;15.50;99.90
54680;DHT22;40578;53.178;5.846;2022-09-09T08:29:09;15.60;99.90
54680;DHT22;40578;53.178;5.846;2022-09-09T08:31:41;15.70;99.90
54680;DHT22;40578;53.178;5.846;2022-09-09T08:34:08;15.70;99.90
54680;DHT22;40578;53.178;5.846;2022-09-09T08:36:36;16.10;99.90
54680;DHT22;40578;53.178;5.846;2022-09-09T08:39:06;16.10;99.90
54680;DHT22;40578;53.178;5.846;2022-09-09T08:42:00;15.90;99.90
54680;DHT22;40578;53.178;5.846;2022-09-09T08:50:06;16.20;99.90
54680;DHT22;40578;53.178;5.846;2022-09-09T08:58:19;16.40;99.90
54680;DHT22;40578;53.178;5.846;2022-09-09T09:11:49;16.70;99.90
54680;DHT22;40578;53.178;5.846;2022-09-09T09:14:24;16.90;99.90
54680;DHT22;40578;53.178;5.846;2022-09-09T09:19:30;17.00;99.90
54680;DHT22;40578;53.178;5.846;2022-09-09T09:24:55;17.00;99.90
54680;DHT22;40578;53.178;5.846;2022-09-09T09:27:24;16.90;99.90
54680;DHT22;40578;53.178;5.846;2022-09-09T09:29:54;16.80;99.90
54680;DHT22;40578;53.178;5.846;2022-09-09T09:32:22;16.90;99.90
54680;DHT22;40578;53.178;5.846;2022-09-09T09:34:56;16.90;99.90
54680;DHT22;40578;53.178;5.846;2022-09-09T09:37:28;16.90;99.90
54680;DHT22;40578;53.178;5.846;2022-09-09T09:39:54;16.90;99.90
54680;DHT22;40578;53.178;5.846;2022-09-09T09:42:20;16.70;99.90
54680;DHT22;40578;53.178;5.846;2022-09-09T09:44:46;16.90;99.90
54680;DHT22;40578;53.178;5.846;2022-09-09T09:47:14;16.90;99.90
54680;DHT22;40578;53.178;5.846;2022-09-09T09:49:56;17.10;99.90
54680;DHT22;40578;53.178;5.846;2022-09-09T09:52:26;17.00;99.90
54680;DHT22;40578;53.178;5.846;2022-09-09T09:54:54;17.20;99.90
54680;DHT22;40578;53.178;5.846;2022-09-09T09:57:29;17.10;99.90
54680;DHT22;40578;53.178;5.846;2022-09-09T10:00:15;17.20;99.90
54680;DHT22;40578;53.178;5.846;2022-09-09T10:02:44;17.30;99.90
54680;DHT22;40578;53.178;5.846;2022-09-09T10:05:21;17.30;99.90
54680;DHT22;40578;53.178;5.846;2022-09-09T10:08:00;17.30;99.90
54680;DHT22;40578;53.178;5.846;2022-09-09T10:10:39;17.40;99.90
54680;DHT22;40578;53.178;5.846;2022-09-09T10:19:03;17.60;99.90
54680;DHT22;40578;53.178;5.846;2022-09-09T10:21:51;17.70;99.90
54680;DHT22;40578;53.178;5.846;2022-09-09T10:24:58;17.90;64.60
54680;DHT22;40578;53.178;5.846;2022-09-09T10:30:23;18.00;1.00
54680;DHT22;40578;53.178;5.846;2022-09-09T10:33:07;18.20;1.00
54680;DHT22;40578;53.178;5.846;2022-09-09T10:35:47;18.10;1.00
54680;DHT22;40578;53.178;5.846;2022-09-09T10:38:40;18.10;1.00
54680;DHT22;40578;53.178;5.846;2022-09-09T10:44:06;18.20;1.00
54680;DHT22;40578;53.178;5.846;2022-09-09T10:46:48;18.40;1.00
54680;DHT22;40578;53.178;5.846;2022-09-09T10:55:13;18.80;1.00
54680;DHT22;40578;53.178;5.846;2022-09-09T10:57:50;18.90;99.90
54680;DHT22;40578;53.178;5.846;2022-09-09T11:00:22;19.00;1.00
54680;DHT22;40578;53.178;5.846;2022-09-09T11:02:55;19.00;1.00
54680;DHT22;40578;53.178;5.846;2022-09-09T11:05:28;18.90;1.00
54680;DHT22;40578;53.178;5.846;2022-09-09T11:10:52;19.00;1.00
54680;DHT22;40578;53.178;5.846;2022-09-09T11:18:39;19.10;99.90
54680;DHT22;40578;53.178;5.846;2022-09-09T11:21:12;18.90;99.90
54680;DHT22;40578;53.178;5.846;2022-09-09T11:23:44;18.90;99.90
54680;DHT22;40578;53.178;5.846;2022-09-09T11:26:18;18.80;99.90
54680;DHT22;40578;53.178;5.846;2022-09-09T11:29:17;18.80;1.00
54680;DHT22;40578;53.178;5.846;2022-09-09T11:37:12;19.00;99.90
54680;DHT22;40578;53.178;5.846;2022-09-09T11:42:25;19.40;1.00
54680;DHT22;40578;53.178;5.846;2022-09-09T11:44:51;19.40;99.90
54680;DHT22;40578;53.178;5.846;2022-09-09T11:47:26;19.50;99.90
54680;DHT22;40578;53.178;5.846;2022-09-09T11:50:10;19.50;99.90
54680;DHT22;40578;53.178;5.846;2022-09-09T11:52:40;19.50;99.90
54680;DHT22;40578;53.178;5.846;2022-09-09T11:55:31;19.50;99.90
54680;DHT22;40578;53.178;5.846;2022-09-09T11:58:04;19.40;99.90
54680;DHT22;40578;53.178;5.846;2022-09-09T12:00:42;19.30;99.90
54680;DHT22;40578;53.178;5.846;2022-09-09T12:03:32;19.30;99.90
54680;DHT22;40578;53.178;5.846;2022-09-09T12:06:24;19.60;99.90
54680;DHT22;40578;53.178;5.846;2022-09-09T12:08:55;19.70;99.90
54680;DHT22;40578;53.178;5.846;2022-09-09T12:11:28;19.60;99.90
54680;DHT22;40578;53.178;5.846;2022-09-09T12:13:59;19.30;99.90
54680;DHT22;40578;53.178;5.846;2022-09-09T12:16:38;19.30;99.90
54680;DHT22;40578;53.178;5.846;2022-09-09T12:19:19;19.00;99.90
54680;DHT22;40578;53.178;5.846;2022-09-09T12:24:37;18.90;1.00
54680;DHT22;40578;53.178;5.846;2022-09-09T12:27:40;18.90;1.00
54680;DHT22;40578;53.178;5.846;2022-09-09T12:30:11;19.20;1.00
54680;DHT22;40578;53.178;5.846;2022-09-09T12:32:37;19.30;1.00
54680;DHT22;40578;53.178;5.846;2022-09-09T12:35:10;19.30;99.90
54680;DHT22;40578;53.178;5.846;2022-09-09T12:37:39;19.30;1.00
54680;DHT22;40578;53.178;5.846;2022-09-09T12:40:26;19.20;99.90
54680;DHT22;40578;53.178;5.846;2022-09-09T12:42:53;19.20;99.90
54680;DHT22;40578;53.178;5.846;2022-09-09T12:45:23;19.20;99.90
54680;DHT22;40578;53.178;5.846;2022-09-09T12:48:01;19.10;1.00
54680;DHT22;40578;53.178;5.846;2022-09-09T12:50:44;19.20;1.00
54680;DHT22;40578;53.178;5.846;2022-09-09T12:55:57;19.90;1.00
54680;DHT22;40578;53.178;5.846;2022-09-09T12:58:25;20.20;1.00
54680;DHT22;40578;53.178;5.846;2022-09-09T13:00:55;20.20;99.90
54680;DHT22;40578;53.178;5.846;2022-09-09T13:03:24;20.20;99.90
54680;DHT22;40578;53.178;5.846;2022-09-09T13:05:53;20.20;99.90
54680;DHT22;40578;53.178;5.846;2022-09-09T13:08:24;20.20;99.90
54680;DHT22;40578;53.178;5.846;2022-09-09T13:10:57;20.30;99.90
54680;DHT22;40578;53.178;5.846;2022-09-09T13:13:30;20.20;99.90
54680;DHT22;40578;53.178;5.846;2022-09-09T13:16:00;20.20;99.90
54680;DHT22;40578;53.178;5.846;2022-09-09T13:18:30;20.20;99.90
54680;DHT22;40578;53.178;5.846;2022-09-09T13:20:57;20.20;99.90
54680;DHT22;40578;53.178;5.846;2022-09-09T13:23:27;20.10;99.90
54680;DHT22;40578;53.178;5.846;2022-09-09T13:26:00;20.30;99.90
54680;DHT22;40578;53.178;5.846;2022-09-09T13:28:28;20.50;99.90
54680;DHT22;40578;53.178;5.846;2022-09-09T13:31:05;20.40;1.00
54680;DHT22;40578;53.178;5.846;2022-09-09T13:33:37;20.50;98.10
54680;DHT22;40578;53.178;5.846;2022-09-09T13:36:08;20.50;11.00
54680;DHT22;40578;53.178;5.846;2022-09-09T13:38:53;20.20;73.50
54680;DHT22;40578;53.178;5.846;2022-09-09T13:41:24;20.00;99.90
54680;DHT22;40578;53.178;5.846;2022-09-09T13:43:51;19.70;99.90
54680;DHT22;40578;53.178;5.846;2022-09-09T13:48:57;19.10;65.80
54680;DHT22;40578;53.178;5.846;2022-09-09T13:53:58;18.50;99.90
54680;DHT22;40578;53.178;5.846;2022-09-09T13:56:24;18.40;99.90
54680;DHT22;40578;53.178;5.846;2022-09-09T13:58:50;18.40;99.90
54680;DHT22;40578;53.178;5.846;2022-09-09T14:01:15;18.40;99.90
54680;DHT22;40578;53.178;5.846;2022-09-09T14:03:41;18.40;99.90
54680;DHT22;40578;53.178;5.846;2022-09-09T14:06:07;18.80;99.90
54680;DHT22;40578;53.178;5.846;2022-09-09T14:08:32;19.00;99.90
54680;DHT22;40578;53.178;5.846;2022-09-09T14:11:06;19.40;99.90
54680;DHT22;40578;53.178;5.846;2022-09-09T14:13:34;19.60;99.90
54680;DHT22;40578;53.178;5.846;2022-09-09T14:15:59;19.60;1.00
54680;DHT22;40578;53.178;5.846;2022-09-09T14:18:25;19.70;1.00
54680;DHT22;40578;53.178;5.846;2022-09-09T14:20:51;19.80;1.00
54680;DHT22;40578;53.178;5.846;2022-09-09T14:23:17;19.80;1.00
54680;DHT22;40578;53.178;5.846;2022-09-09T14:25:45;19.80;1.00
54680;DHT22;40578;53.178;5.846;2022-09-09T14:28:13;19.80;1.00
54680;DHT22;40578;53.178;5.846;2022-09-09T14:30:40;19.80;1.00
54680;DHT22;40578;53.178;5.846;2022-09-09T14:33:07;19.80;1.00
54680;DHT22;40578;53.178;5.846;2022-09-09T14:35:34;19.90;1.00
54680;DHT22;40578;53.178;5.846;2022-09-09T14:38:00;20.00;1.00
54680;DHT22;40578;53.178;5.846;2022-09-09T14:40:26;20.00;99.90
54680;DHT22;40578;53.178;5.846;2022-09-09T14:42:53;19.80;99.90
54680;DHT22;40578;53.178;5.846;2022-09-09T14:45:18;19.80;99.90
54680;DHT22;40578;53.178;5.846;2022-09-09T14:47:44;19.70;99.90
54680;DHT22;40578;53.178;5.846;2022-09-09T14:50:10;19.70;99.90
54680;DHT22;40578;53.178;5.846;2022-09-09T14:52:38;19.70;99.90
54680;DHT22;40578;53.178;5.846;2022-09-09T14:55:04;19.50;99.90
54680;DHT22;40578;53.178;5.846;2022-09-09T14:57:30;19.30;99.90
54680;DHT22;40578;53.178;5.846;2022-09-09T14:59:56;19.00;99.90
54680;DHT22;40578;53.178;5.846;2022-09-09T15:02:22;18.90;99.90
54680;DHT22;40578;53.178;5.846;2022-09-09T15:04:47;18.80;99.90
54680;DHT22;40578;53.178;5.846;2022-09-09T15:07:15;18.60;99.90
54680;DHT22;40578;53.178;5.846;2022-09-09T15:09:42;18.60;1.00
54680;DHT22;40578;53.178;5.846;2022-09-09T15:12:07;18.50;1.00
54680;DHT22;40578;53.178;5.846;2022-09-09T15:14:33;18.50;99.70
54680;DHT22;40578;53.178;5.846;2022-09-09T15:16:59;18.10;99.90
54680;DHT22;40578;53.178;5.846;2022-09-09T15:19:25;17.80;99.90
54680;DHT22;40578;53.178;5.846;2022-09-09T15:21:50;17.40;99.90
54680;DHT22;40578;53.178;5.846;2022-09-09T15:24:16;17.40;99.90
54680;DHT22;40578;53.178;5.846;2022-09-09T15:26:42;17.10;99.90
54680;DHT22;40578;53.178;5.846;2022-09-09T15:29:08;17.00;99.90
54680;DHT22;40578;53.178;5.846;2022-09-09T15:31:33;17.00;99.90
54680;DHT22;40578;53.178;5.846;2022-09-09T15:34:01;16.90;99.90
54680;DHT22;40578;53.178;5.846;2022-09-09T15:36:28;17.00;99.90
54680;DHT22;40578;53.178;5.846;2022-09-09T15:38:54;16.70;99.90
54680;DHT22;40578;53.178;5.846;2022-09-09T15:41:21;16.80;99.90
54680;DHT22;40578;53.178;5.846;2022-09-09T15:43:49;16.70;99.90
54680;DHT22;40578;53.178;5.846;2022-09-09T15:46:35;16.70;99.90
54680;DHT22;40578;53.178;5.846;2022-09-09T15:49:09;16.70;99.90
54680;DHT22;40578;53.178;5.846;2022-09-09T15:51:37;16.80;99.90
54680;DHT22;40578;53.178;5.846;2022-09-09T15:54:04;16.80;99.90
54680;DHT22;40578;53.178;5.846;2022-09-09T15:56:30;16.90;99.90
54680;DHT22;40578;53.178;5.846;2022-09-09T15:58:57;17.00;99.90
54680;DHT22;40578;53.178;5.846;2022-09-09T16:01:23;17.00;99.90
54680;DHT22;40578;53.178;5.846;2022-09-09T16:03:49;17.30;99.90
54680;DHT22;40578;53.178;5.846;2022-09-09T16:06:22;17.10;99.90
54680;DHT22;40578;53.178;5.846;2022-09-09T16:08:50;17.30;99.90
54680;DHT22;40578;53.178;5.846;2022-09-09T16:11:25;17.30;99.90
54680;DHT22;40578;53.178;5.846;2022-09-09T16:13:52;17.30;99.90
54680;DHT22;40578;53.178;5.846;2022-09-09T16:16:21;17.50;99.90
54680;DHT22;40578;53.178;5.846;2022-09-09T16:18:55;17.50;99.90
54680;DHT22;40578;53.178;5.846;2022-09-09T16:21:24;17.70;99.90
54680;DHT22;40578;53.178;5.846;2022-09-09T16:23:53;17.50;99.90
54680;DHT22;40578;53.178;5.846;2022-09-09T16:26:19;17.50;99.90
54680;DHT22;40578;53.178;5.846;2022-09-09T16:28:45;17.30;99.90
54680;DHT22;40578;53.178;5.846;2022-09-09T16:31:21;17.30;99.90
54680;DHT22;40578;53.178;5.846;2022-09-09T16:33:48;17.30;99.90
54680;DHT22;40578;53.178;5.846;2022-09-09T16:36:18;17.30;99.90
54680;DHT22;40578;53.178;5.846;2022-09-09T16:38:44;17.40;99.90
54680;DHT22;40578;53.178;5.846;2022-09-09T16:41:11;17.20;99.90
54680;DHT22;40578;53.178;5.846;2022-09-09T16:43:37;17.40;99.90
54680;DHT22;40578;53.178;5.846;2022-09-09T16:46:14;17.20;99.90
54680;DHT22;40578;53.178;5.846;2022-09-09T16:48:41;17.30;99.90
54680;DHT22;40578;53.178;5.846;2022-09-09T16:51:10;17.40;99.90
54680;DHT22;40578;53.178;5.846;2022-09-09T16:53:37;17.20;99.90
54680;DHT22;40578;53.178;5.846;2022-09-09T16:56:13;17.40;99.90
54680;DHT22;40578;53.178;5.846;2022-09-09T16:58:40;17.40;99.90
54680;DHT22;40578;53.178;5.846;2022-09-09T17:01:06;17.40;99.90
54680;DHT22;40578;53.178;5.846;2022-09-09T17:03:32;17.40;99.90
54680;DHT22;40578;53.178;5.846;2022-09-09T17:05:58;17.30;99.90
54680;DHT22;40578;53.178;5.846;2022-09-09T17:08:29;17.20;99.90
54680;DHT22;40578;53.178;5.846;2022-09-09T17:10:55;17.30;99.90
54680;DHT22;40578;53.178;5.846;2022-09-09T17:13:20;17.40;99.90
54680;DHT22;40578;53.178;5.846;2022-09-09T17:15:46;17.50;99.90
54680;DHT22;40578;53.178;5.846;2022-09-09T17:18:12;17.20;99.90
54680;DHT22;40578;53.178;5.846;2022-09-09T17:20:40;17.10;99.90
54680;DHT22;40578;53.178;5.846;2022-09-09T17:23:07;17.00;99.90
54680;DHT22;40578;53.178;5.846;2022-09-09T17:25:32;17.00;99.90
54680;DHT22;40578;53.178;5.846;2022-09-09T17:27:59;16.70;99.90
54680;DHT22;40578;53.178;5.846;2022-09-09T17:30:25;16.60;99.90
54680;DHT22;40578;53.178;5.846;2022-09-09T17:32:51;16.60;99.90
54680;DHT22;40578;53.178;5.846;2022-09-09T17:35:16;16.70;99.90
54680;DHT22;40578;53.178;5.846;2022-09-09T17:37:43;16.50;99.90
54680;DHT22;40578;53.178;5.846;2022-09-09T17:40:10;16.70;99.90
54680;DHT22;40578;53.178;5.846;2022-09-09T17:42:35;16.60;99.90
54680;DHT22;40578;53.178;5.846;2022-09-09T17:45:01;16.50;99.90
54680;DHT22;40578;53.178;5.846;2022-09-09T17:47:27;16.50;99.90